Ana Sayfa
METAR-TAF:

METAR-TAF

Havaalanları :

Hatay Havalimanı

Antakya, Türkiye

Enlem: 36-21-46N, Boylam: 36-16-56E, yükseklik: 1950 m

Güncel hava durumu gözlemi

Rapor saat 08:50 UTC de 24 dakika önce yapıldı.
Rüzgar doğu/kuzeydoğudan 3 kt, kuzey/kuzeybatı ve doğu/güneydoğu arasında değişken
Sıcaklık 15°C
Nem 55%
Basınç 1022 hPa
Görüş mesafesi 10 km veya daha fazla
4000 ft yükseklikte parçalı bulutlu
10000 ft yükseklikte parçalı çok bulutlu

METAR: LTDA 190850Z 06003KT 330V110 9999 SCT040 BKN100 15/06 Q1022 NOSIG

Saat: 12:14 (09:14 UTC)

Tahmin

Rapor saat 07:40 UTC de 1 saat ve 34 dakika önce yapıldı.
Ayın 19'si saat 09 UTC'den ayın 19'si saat 18 UTC'ye kadar geçerli Tahmin
Rüzgar değişken yönden 2 kt
Görüş mesafesi 10 km veya daha fazla
4000 ft yükseklikte parçalı bulutlu
12000 ft yükseklikte parçalı çok bulutlu

TAF: LTDA 190740Z 1909/1918 VRB02KT 9999 SCT040 BKN120

4.000'den fazla havaalanı için hava durumu gözlemleri ve tahminleri (METAR ve TAF raporları).

Kullanılabilir istasyonlar harita üzerinde sarı ve kırmızı noktalarla gösterilir.

İstasyonun adını görmek için fareyi noktanın üzerinde gezdirin.

Sonrasında hava gözlem ve tahminlerini görmek için tıklayın.

Haritayı değiştirmek için: yaklaştırmak için siyah artı işaretli yeşil düğmeye ve uzaklaştırmak için de eksi işaretli düğmeye hızla tıklayın; bitişik haritalar için yeşil okları kullanın.


METAR-TAF: